Hauptseite
METAR-TAF:

METAR-TAF

Flughäfen :

Flughafen Xi’an-Xianyang

Xi’an, China

Breite: 34-26N, Länge: 108-45E, Höhe: 479 m

Beobachtung

Neuester Wetterbericht von vor 25 Minuten, um 08:00 UTC
Wind 10 kt aus Süd/Südwest, variierte zwischen Süd/Südost und West
Temperatur 25°C
Luftfeuchtigkeit 28%
Luftdruck 1018 hPa
Sichtweite 10 km oder mehr
keine Wolken unter 1500 m und keine Kumulonimbus oder Gewitterwolken

METAR: ZLXY 220800Z 20005MPS 160V280 CAVOK 25/05 Q1018 NOSIG

Zeit: 16:25 (08:25 UTC)

Prognose

Neuester Wetterbericht von vor 5 Stunden und 15 Minuten, um 03:10 UTC
Gültige Prognose vom 22 um 06 UTC bis 23 um 06 UTC
Wind 8 kt aus West
Sichtweite: 6000 m

TAF: ZLXY 220310Z 2206/2306 27004MPS 6000 NSC TX25/2208Z TN12/2223Z

Wetterbeobachtungen und Prognosen von mehr als 4000 Flughäfen (METAR und TAF Bericht).

Die verfügbaren Stationen werden durch gelbe und rote Markierungen auf der Karte dargestellt.

Führen Sie die Maus auf sie, um den Namen der Station zu sehen.

Darauf klicken, um die Beobachtung von Wetterbeobachtungen und Prognosen zu sehen.

Um die Karte zu ändern : klicken Sie auf den grünen Tasten mit einem schwarzen Kreuz Zum Vergrößern, auf den grünen Button mit einem Gedankenstrich zu verkleinern, oder auf die grünen Pfeile für benachbarte Karten.


METAR-TAF: